Dati Storici

Data ora Umidita' aria (%) Temperatura aria (°C) Rad globale (W/m²) Gonioanemometro (°) Tacoanemometro (m/s) Pioggia (mm)
13-06-2020 22:50 97.6 % 17.759 -59.219 3.81 0 0
13-06-2020 22:40 93.9 % 17.915 -43.427 4.995 0 0
13-06-2020 22:30 85.7 % 18.575 -55.565 8.745 0 0
13-06-2020 22:20 71.3 % 20.153 -58.578 6.586 0 0
13-06-2020 22:10 70.5 % 22.07 -56.414 5.156 0 0
13-06-2020 22:00 71.1 % 22.232 -65.239 3.002 0 0
13-06-2020 21:50 70.9 % 22.161 -54.865 2.784 0 0
13-06-2020 21:40 70.5 % 22.575 -59.449 1.231 0 0
13-06-2020 21:30 72.1 % 22.662 -55.259 1.571 0 0
13-06-2020 21:20 72.3 % 22.7 -54.399 0.403 0 0
13-06-2020 21:10 70.8 % 22.717 -59.547 1.769 0 0
13-06-2020 21:00 69.2 % 23.012 -56.319 1.806 0 0
13-06-2020 20:50 69 % 23.095 -54.495 2.507 0 0
13-06-2020 20:40 69.5 % 23.095 -49.959 0.008 0 0
13-06-2020 20:30 70.5 % 23.089 -66.92 1.254 0 0
13-06-2020 20:20 68.1 % 23.19 -61.554 0.409 0 0
13-06-2020 20:10 65 % 23.291 -70.253 1.79 0 0
13-06-2020 20:00 62.5 % 23.327 -60.111 1.562 0 0
13-06-2020 19:50 65.4 % 23.064 -63.053 1.454 0 0
13-06-2020 19:40 67.1 % 23.035 -63.443 1.857 0 0

I dati sono presentati in modo automatico a scopo informativo. In seguito a verifica i dati possono subire modifiche o essere invalidati e non riportati negli archivi definitivi.